createdAt,value
2018-12-23T00:00:48.640Z,93.60
2018-12-23T00:03:17.001Z,93.60
2018-12-23T00:05:45.405Z,93.00
2018-12-23T00:08:13.799Z,93.10
2018-12-23T00:10:42.140Z,93.00
2018-12-23T00:13:11.132Z,93.10
2018-12-23T00:15:39.478Z,93.10
2018-12-23T00:18:07.851Z,93.30
2018-12-23T00:20:37.196Z,93.50
2018-12-23T00:23:05.537Z,93.60
2018-12-23T00:25:39.793Z,93.40
2018-12-23T00:28:08.186Z,93.10
2018-12-23T00:30:36.590Z,92.70
2018-12-23T00:33:04.936Z,92.60
2018-12-23T00:35:33.270Z,92.70
2018-12-23T00:38:01.644Z,93.00
2018-12-23T00:40:29.990Z,93.00
2018-12-23T00:42:58.324Z,92.60
2018-12-23T00:45:26.720Z,92.30
2018-12-23T00:47:55.070Z,92.50
2018-12-23T00:50:23.524Z,92.50
2018-12-23T00:52:51.953Z,92.80
2018-12-23T00:55:20.294Z,92.50
2018-12-23T00:57:48.632Z,92.00
2018-12-23T01:00:17.163Z,91.70
2018-12-23T01:02:45.656Z,91.60
2018-12-23T01:05:13.980Z,91.70
2018-12-23T01:07:42.368Z,91.90
2018-12-23T01:10:10.878Z,91.50
2018-12-23T01:12:39.290Z,91.90
2018-12-23T01:15:07.872Z,92.00
2018-12-23T01:17:36.237Z,91.70
2018-12-23T01:20:05.278Z,92.10
2018-12-23T01:22:33.724Z,92.10
2018-12-23T01:25:02.073Z,92.50
2018-12-23T01:27:30.578Z,92.30
2018-12-23T01:29:58.907Z,92.70
2018-12-23T01:32:27.242Z,92.50
2018-12-23T01:34:55.618Z,92.40
2018-12-23T01:37:23.958Z,92.80
2018-12-23T01:39:52.356Z,93.00
2018-12-23T01:42:20.698Z,93.00
2018-12-23T01:44:49.121Z,93.00
2018-12-23T01:47:18.478Z,93.20
2018-12-23T01:49:46.847Z,93.40
2018-12-23T01:52:15.192Z,93.00
2018-12-23T01:54:43.590Z,93.30
2018-12-23T01:57:11.924Z,93.10
2018-12-23T01:59:40.260Z,93.10
2018-12-23T02:02:08.659Z,93.40
2018-12-23T02:04:37.062Z,93.70
2018-12-23T02:07:05.442Z,93.80
2018-12-23T02:09:34.154Z,93.80
2018-12-23T02:12:02.580Z,93.90
2018-12-23T02:14:30.930Z,94.10
2018-12-23T02:16:59.318Z,94.00
2018-12-23T02:19:27.690Z,93.90
2018-12-23T02:21:56.158Z,93.90
2018-12-23T02:24:24.570Z,93.90
2018-12-23T02:26:52.919Z,93.80
2018-12-23T02:29:21.256Z,93.50
2018-12-23T02:31:49.641Z,93.20
2018-12-23T02:34:17.963Z,93.60
2018-12-23T02:36:46.362Z,93.50
2018-12-23T02:39:14.808Z,93.50
2018-12-23T02:41:43.620Z,93.40
2018-12-23T02:44:13.093Z,93.00
2018-12-23T02:46:41.426Z,93.00
2018-12-23T02:49:10.710Z,93.70
2018-12-23T02:51:39.254Z,93.40
2018-12-23T02:54:07.588Z,93.40
2018-12-23T02:56:36.142Z,93.60
2018-12-23T02:59:04.692Z,93.00
2018-12-23T03:01:33.046Z,93.00
2018-12-23T03:04:01.557Z,93.00
2018-12-23T03:06:29.898Z,93.00
2018-12-23T03:08:59.369Z,92.90
2018-12-23T03:11:27.836Z,93.00
2018-12-23T03:13:56.185Z,93.20
2018-12-23T03:16:24.588Z,92.90
2018-12-23T03:18:52.975Z,93.20
2018-12-23T03:21:21.428Z,92.70
2018-12-23T03:23:49.808Z,92.70
2018-12-23T03:26:18.148Z,93.00
2018-12-23T03:28:46.569Z,92.80
2018-12-23T03:31:14.967Z,92.90
2018-12-23T03:33:43.316Z,92.90
2018-12-23T03:36:15.212Z,92.90
2018-12-23T03:38:42.289Z,93.00
2018-12-23T03:41:10.624Z,93.30
2018-12-23T03:43:39.025Z,92.90
2018-12-23T03:46:07.403Z,93.00
2018-12-23T03:48:35.734Z,93.00
2018-12-23T03:51:04.143Z,93.10
2018-12-23T03:53:32.464Z,93.40
2018-12-23T03:56:00.810Z,93.90
2018-12-23T03:58:29.986Z,93.70
2018-12-23T04:00:58.305Z,93.60
2018-12-23T04:03:26.718Z,93.60
2018-12-23T04:05:55.167Z,93.60
2018-12-23T04:08:23.665Z,93.60
2018-12-23T04:10:52.019Z,93.60
2018-12-23T04:13:20.471Z,93.70
2018-12-23T04:15:48.914Z,93.60
2018-12-23T04:18:17.290Z,93.60
2018-12-23T04:20:45.675Z,93.50
2018-12-23T04:23:14.070Z,93.50
2018-12-23T04:25:43.166Z,93.70
2018-12-23T04:28:11.522Z,93.50
2018-12-23T04:30:40.073Z,93.40
2018-12-23T04:33:08.405Z,93.60
2018-12-23T04:35:36.739Z,93.50
2018-12-23T04:38:05.120Z,93.40
2018-12-23T04:40:33.467Z,93.50
2018-12-23T04:43:01.816Z,93.30
2018-12-23T04:45:30.289Z,93.20
2018-12-23T04:47:58.744Z,93.70
2018-12-23T04:50:27.137Z,93.20
2018-12-23T04:52:55.495Z,93.30
2018-12-23T04:55:25.330Z,93.40
2018-12-23T04:57:53.899Z,93.20
2018-12-23T05:00:22.279Z,93.00
2018-12-23T05:02:50.672Z,93.00
2018-12-23T05:05:19.073Z,93.00
2018-12-23T05:07:47.514Z,93.00
2018-12-23T05:10:15.906Z,92.90
2018-12-23T05:12:44.319Z,92.70
2018-12-23T05:15:12.664Z,92.70
2018-12-23T05:17:41.004Z,93.00
2018-12-23T05:20:09.691Z,93.00
2018-12-23T05:22:38.011Z,92.90
2018-12-23T05:25:06.402Z,93.40
2018-12-23T05:27:34.775Z,93.00
2018-12-23T05:30:03.386Z,93.00
2018-12-23T05:32:31.809Z,93.30
2018-12-23T05:35:00.147Z,93.30
2018-12-23T05:37:29.196Z,93.40
2018-12-23T05:39:57.604Z,93.40
2018-12-23T05:42:26.000Z,93.20
2018-12-23T05:44:54.406Z,93.40
2018-12-23T05:47:22.749Z,93.30
2018-12-23T05:49:51.131Z,93.20
2018-12-23T05:52:19.509Z,93.20
2018-12-23T05:54:47.873Z,93.30
2018-12-23T05:57:16.226Z,93.40
2018-12-23T05:59:44.629Z,93.40
2018-12-23T06:02:13.019Z,93.50
2018-12-23T06:04:41.351Z,93.50
2018-12-23T06:07:09.692Z,93.50
2018-12-23T06:09:38.070Z,93.40
2018-12-23T06:12:06.541Z,93.40
2018-12-23T06:14:35.485Z,93.50
2018-12-23T06:17:03.901Z,93.50
2018-12-23T06:19:32.235Z,93.00
2018-12-23T06:22:00.710Z,93.00
2018-12-23T06:24:29.631Z,93.00
2018-12-23T06:26:57.984Z,93.00
2018-12-23T06:29:26.348Z,93.00
2018-12-23T06:31:54.759Z,93.00
2018-12-23T06:34:23.096Z,93.00
2018-12-23T06:36:51.593Z,92.80
2018-12-23T06:39:19.958Z,92.50
2018-12-23T06:41:48.490Z,92.90
2018-12-23T06:44:16.821Z,92.70
2018-12-23T06:46:45.203Z,92.50
2018-12-23T06:49:13.608Z,92.40
2018-12-23T06:51:41.933Z,92.30
2018-12-23T06:54:10.269Z,92.40
2018-12-23T06:56:38.670Z,92.40
2018-12-23T06:59:07.010Z,92.20
2018-12-23T07:01:35.386Z,92.40
2018-12-23T07:04:03.701Z,92.50
2018-12-23T07:06:32.041Z,92.40
2018-12-23T07:09:00.877Z,92.50
2018-12-23T07:11:29.277Z,92.50
2018-12-23T07:13:57.633Z,92.40
2018-12-23T07:16:26.059Z,92.50
2018-12-23T07:18:54.432Z,92.30
2018-12-23T07:21:23.218Z,92.30
2018-12-23T07:23:51.617Z,92.40
2018-12-23T07:26:19.961Z,92.30
2018-12-23T07:28:48.284Z,92.40
2018-12-23T07:31:16.807Z,92.20
2018-12-23T07:33:45.285Z,92.20
2018-12-23T07:36:13.613Z,92.30
2018-12-23T07:38:41.997Z,92.10
2018-12-23T07:41:10.341Z,92.10
2018-12-23T07:43:38.855Z,92.20
2018-12-23T07:46:07.195Z,92.20
2018-12-23T07:48:35.539Z,92.50
2018-12-23T07:51:03.937Z,92.30
2018-12-23T07:53:32.274Z,92.50
2018-12-23T07:56:00.637Z,92.30
2018-12-23T07:58:29.159Z,92.50
2018-12-23T08:00:57.489Z,92.60
2018-12-23T08:03:25.841Z,92.70
2018-12-23T08:05:54.246Z,92.70
2018-12-23T08:08:22.586Z,92.60
2018-12-23T08:10:51.091Z,92.60
2018-12-23T08:13:19.425Z,92.50
2018-12-23T08:15:47.771Z,92.70
2018-12-23T08:18:16.212Z,92.70
2018-12-23T08:20:44.537Z,92.60
2018-12-23T08:23:12.870Z,92.60
2018-12-23T08:25:41.287Z,92.70
2018-12-23T08:28:09.638Z,92.80
2018-12-23T08:30:38.341Z,93.10
2018-12-23T08:33:06.686Z,93.10
2018-12-23T08:35:35.054Z,93.20
2018-12-23T08:38:03.538Z,93.40
2018-12-23T08:40:31.870Z,93.40
2018-12-23T08:43:00.218Z,93.10
2018-12-23T08:45:28.633Z,93.20
2018-12-23T08:47:58.104Z,93.50
2018-12-23T08:50:26.491Z,93.50
2018-12-23T08:52:54.895Z,93.70
2018-12-23T08:55:23.469Z,93.80
2018-12-23T08:57:51.879Z,93.90
2018-12-23T09:00:20.240Z,93.80
2018-12-23T09:02:48.587Z,93.70
2018-12-23T09:05:17.964Z,93.20
2018-12-23T09:07:52.987Z,93.00
2018-12-23T09:10:16.699Z,92.60
2018-12-23T09:12:45.155Z,92.60
2018-12-23T09:15:13.501Z,92.60
2018-12-23T09:17:41.851Z,92.70
2018-12-23T09:20:10.228Z,92.20
2018-12-23T09:22:38.566Z,92.20
2018-12-23T09:25:06.916Z,92.10
2018-12-23T09:27:35.363Z,92.10
2018-12-23T09:30:04.839Z,92.40
2018-12-23T09:32:33.180Z,93.00
2018-12-23T09:35:01.573Z,92.60
2018-12-23T09:37:29.945Z,93.00
2018-12-23T09:39:58.326Z,93.00
2018-12-23T09:42:26.674Z,93.00
2018-12-23T09:44:55.111Z,93.00
2018-12-23T09:47:23.522Z,93.20
2018-12-23T09:49:51.954Z,92.70
2018-12-23T09:52:20.280Z,93.00
2018-12-23T09:54:48.692Z,93.00
2018-12-23T09:57:17.049Z,92.80
2018-12-23T09:59:45.845Z,92.50
2018-12-23T10:02:14.234Z,92.60
2018-12-23T10:04:42.798Z,92.90
2018-12-23T10:07:11.205Z,92.90
2018-12-23T10:09:39.553Z,92.50
2018-12-23T10:12:07.980Z,92.30
2018-12-23T10:14:36.353Z,92.60
2018-12-23T10:17:04.786Z,92.30
2018-12-23T10:19:33.275Z,92.40
2018-12-23T10:22:01.681Z,92.50
2018-12-23T10:24:30.022Z,92.40
2018-12-23T10:26:58.844Z,92.30
2018-12-23T10:29:28.482Z,92.20
2018-12-23T10:31:57.007Z,92.20
2018-12-23T10:34:25.604Z,92.30
2018-12-23T10:36:54.061Z,92.40
2018-12-23T10:39:23.075Z,92.30
2018-12-23T10:41:51.451Z,92.30
2018-12-23T10:44:19.801Z,92.80
2018-12-23T10:46:48.223Z,92.10
2018-12-23T10:49:16.613Z,92.10
2018-12-23T10:51:44.959Z,92.10
2018-12-23T10:54:13.354Z,92.10
2018-12-23T10:56:41.714Z,92.50
2018-12-23T10:59:10.069Z,91.70
2018-12-23T11:01:38.450Z,91.70
2018-12-23T11:04:07.460Z,91.90
2018-12-23T11:06:35.893Z,91.80
2018-12-23T11:09:06.261Z,91.90
2018-12-23T11:11:34.843Z,91.90
2018-12-23T11:14:03.589Z,91.80
2018-12-23T11:16:31.956Z,91.50
2018-12-23T11:19:00.300Z,91.40
2018-12-23T11:21:29.339Z,91.20
2018-12-23T11:23:58.387Z,90.80
2018-12-23T11:26:26.860Z,90.90
2018-12-23T11:28:55.211Z,90.80
2018-12-23T11:31:23.633Z,90.70
2018-12-23T11:33:52.221Z,90.90
2018-12-23T11:36:20.561Z,90.80
2018-12-23T11:38:49.050Z,90.80
2018-12-23T11:41:17.398Z,91.00
2018-12-23T11:43:45.885Z,90.80
2018-12-23T11:46:14.343Z,90.90
2018-12-23T11:48:42.709Z,90.80
2018-12-23T11:51:11.059Z,90.80
2018-12-23T11:53:39.548Z,90.50
2018-12-23T11:56:07.995Z,91.00
2018-12-23T11:58:36.437Z,90.90
2018-12-23T12:01:04.953Z,90.90
2018-12-23T12:03:33.303Z,90.90
2018-12-23T12:06:02.533Z,91.30
2018-12-23T12:08:30.927Z,91.60
2018-12-23T12:10:59.311Z,91.60
2018-12-23T12:13:27.836Z,91.70
2018-12-23T12:15:56.289Z,91.70
2018-12-23T12:18:24.731Z,91.70
2018-12-23T12:20:53.070Z,91.90
2018-12-23T12:23:21.467Z,92.20
2018-12-23T12:25:49.918Z,92.40
2018-12-23T12:28:18.265Z,92.50
2018-12-23T12:30:46.613Z,92.70
2018-12-23T12:33:15.015Z,92.80
2018-12-23T12:35:43.404Z,93.00
2018-12-23T12:38:52.220Z,93.30
2018-12-23T12:41:22.065Z,93.20
2018-12-23T12:43:53.168Z,93.40
2018-12-23T12:46:24.605Z,93.50
2018-12-23T12:48:55.476Z,93.50
2018-12-23T12:51:26.395Z,93.50
2018-12-23T12:53:57.331Z,93.80
2018-12-23T12:56:28.002Z,93.80
2018-12-23T12:58:59.015Z,93.80
2018-12-23T13:01:30.057Z,93.60
2018-12-23T13:04:01.004Z,93.70
2018-12-23T13:06:32.076Z,93.80
2018-12-23T13:09:02.878Z,93.60
2018-12-23T13:11:33.592Z,93.40
2018-12-23T13:14:04.650Z,93.50
2018-12-23T13:16:35.650Z,93.50
2018-12-23T13:19:06.276Z,93.50
2018-12-23T13:21:37.274Z,93.80
2018-12-23T13:24:08.236Z,93.80
2018-12-23T13:26:38.828Z,94.20
2018-12-23T13:29:09.828Z,94.50
2018-12-23T13:31:40.225Z,94.70
2018-12-23T13:34:10.899Z,94.40
2018-12-23T13:36:41.812Z,94.40
2018-12-23T13:39:14.702Z,94.50
2018-12-23T13:42:25.678Z,94.50
2018-12-23T13:45:35.577Z,94.30
2018-12-23T13:48:40.998Z,94.40
2018-12-23T13:51:56.573Z,94.60
2018-12-23T13:55:06.448Z,94.30
2018-12-23T13:58:51.409Z,93.70
2018-12-23T14:02:07.170Z,93.50
2018-12-23T14:05:13.419Z,91.70
2018-12-23T14:08:09.590Z,91.90
2018-12-23T14:11:16.595Z,91.50
2018-12-23T14:13:47.481Z,92.20
2018-12-23T14:16:18.483Z,92.00
2018-12-23T14:18:49.225Z,92.10
2018-12-23T14:21:20.230Z,92.40
2018-12-23T14:23:50.999Z,92.40
2018-12-23T14:26:21.628Z,92.40
2018-12-23T14:28:52.065Z,92.50
2018-12-23T14:31:22.737Z,92.00
2018-12-23T14:33:53.648Z,92.50
2018-12-23T14:36:24.687Z,92.20
2018-12-23T14:38:55.659Z,92.10
2018-12-23T14:41:26.803Z,91.80
2018-12-23T14:43:57.827Z,91.80
2018-12-23T14:46:28.811Z,91.70
2018-12-23T14:48:59.894Z,91.40
2018-12-23T14:51:30.877Z,91.60
2018-12-23T14:54:01.838Z,91.90
2018-12-23T14:56:33.878Z,92.00
2018-12-23T14:59:04.795Z,92.40
2018-12-23T15:01:35.760Z,92.70
2018-12-23T15:04:06.681Z,92.60
2018-12-23T15:06:37.415Z,93.00
2018-12-23T15:09:09.656Z,92.80
2018-12-23T15:11:40.608Z,93.10
2018-12-23T15:14:11.510Z,93.40
2018-12-23T15:16:42.630Z,93.10
2018-12-23T15:19:13.604Z,93.20
2018-12-23T15:21:43.882Z,93.40
2018-12-23T15:24:15.138Z,93.60
2018-12-23T15:26:45.716Z,93.70
2018-12-23T15:29:16.900Z,93.80
2018-12-23T15:31:47.947Z,93.90
2018-12-23T15:34:18.998Z,93.90
2018-12-23T15:36:49.572Z,94.00
2018-12-23T15:39:20.685Z,93.90
2018-12-23T15:41:51.597Z,94.10
2018-12-23T15:44:22.522Z,94.10
2018-12-23T15:46:53.607Z,94.30
2018-12-23T15:49:24.248Z,94.40
2018-12-23T15:51:55.125Z,94.40
2018-12-23T15:54:26.236Z,94.50
2018-12-23T15:56:57.083Z,94.60
2018-12-23T15:59:27.699Z,94.60
2018-12-23T16:01:58.418Z,95.00
2018-12-23T16:04:29.370Z,94.80
2018-12-23T16:07:00.404Z,94.90
2018-12-23T16:09:30.994Z,94.90
2018-12-23T16:12:01.960Z,95.10
2018-12-23T16:14:32.924Z,95.50
2018-12-23T16:17:03.517Z,95.30
2018-12-23T16:19:34.612Z,95.40
2018-12-23T16:22:05.500Z,95.50
2018-12-23T16:24:36.458Z,95.50
2018-12-23T16:27:07.356Z,95.50
2018-12-23T16:29:38.126Z,95.50
2018-12-23T16:32:09.122Z,95.50
2018-12-23T16:34:40.024Z,95.60
2018-12-23T16:37:10.693Z,95.50
2018-12-23T16:39:41.743Z,95.60
2018-12-23T16:42:12.633Z,95.70
2018-12-23T16:44:43.646Z,95.90
2018-12-23T16:47:14.605Z,96.20
2018-12-23T16:49:45.632Z,96.30
2018-12-23T16:52:15.928Z,96.60
2018-12-23T16:54:46.556Z,97.10
2018-12-23T16:57:17.628Z,97.10
2018-12-23T16:59:48.660Z,97.10
2018-12-23T17:02:19.283Z,97.20
2018-12-23T17:04:50.385Z,97.00
2018-12-23T17:07:21.473Z,97.00
2018-12-23T17:09:51.389Z,97.00
2018-12-23T17:12:22.452Z,97.00
2018-12-23T17:14:53.557Z,97.20
2018-12-23T17:17:24.168Z,97.50
2018-12-23T17:19:55.282Z,97.70
2018-12-23T17:22:26.375Z,97.30
2018-12-23T17:24:57.008Z,97.30
2018-12-23T17:27:27.595Z,97.40
2018-12-23T17:29:58.623Z,97.50
2018-12-23T17:32:29.608Z,97.60
2018-12-23T17:35:00.215Z,97.50
2018-12-23T17:37:30.996Z,97.50
2018-12-23T17:40:01.664Z,97.30
2018-12-23T17:42:32.764Z,97.70
2018-12-23T17:45:03.888Z,97.60
2018-12-23T17:47:34.468Z,97.60
2018-12-23T17:50:05.723Z,97.60
2018-12-23T17:52:36.690Z,97.70
2018-12-23T17:55:07.383Z,97.80
2018-12-23T17:57:38.052Z,97.90
2018-12-23T18:00:08.254Z,97.90
2018-12-23T18:02:39.184Z,97.90
2018-12-23T18:05:09.960Z,97.90
2018-12-23T18:07:40.553Z,98.30
2018-12-23T18:10:11.176Z,98.20
2018-12-23T18:12:42.286Z,98.30
2018-12-23T18:15:13.214Z,98.30
2018-12-23T18:17:44.263Z,98.30
2018-12-23T18:20:14.685Z,98.50
2018-12-23T18:22:49.941Z,98.70
2018-12-23T18:25:21.198Z,98.80
2018-12-23T18:27:52.486Z,98.80
2018-12-23T18:30:23.864Z,99.00
2018-12-23T18:32:54.910Z,98.80
2018-12-23T18:35:26.254Z,98.80
2018-12-23T18:37:57.326Z,98.80
2018-12-23T18:40:33.275Z,98.80
2018-12-23T18:43:01.542Z,98.90
2018-12-23T18:45:38.242Z,99.20
2018-12-23T18:48:09.542Z,99.20
2018-12-23T18:50:40.811Z,98.90
2018-12-23T18:53:12.299Z,98.90
2018-12-23T18:55:43.264Z,99.20
2018-12-23T18:58:14.957Z,99.20
2018-12-23T19:00:49.391Z,99.40
2018-12-23T19:03:20.311Z,99.40
2018-12-23T19:05:51.121Z,99.30
2018-12-23T19:08:38.589Z,99.70
2018-12-23T19:11:45.292Z,99.90
2018-12-23T19:15:09.185Z,99.90
2018-12-23T19:18:44.809Z,99.90
2018-12-23T19:21:54.078Z,99.90
2018-12-23T19:25:21.039Z,99.90
2018-12-23T19:28:59.748Z,99.90
2018-12-23T19:32:20.470Z,99.90
2018-12-23T19:35:30.434Z,99.90
2018-12-23T19:38:49.677Z,99.90
2018-12-23T19:41:47.997Z,99.60
2018-12-23T19:45:03.728Z,99.70
2018-12-23T19:48:00.591Z,99.60
2018-12-23T19:51:01.406Z,99.50
2018-12-23T19:54:36.973Z,99.50
2018-12-23T19:57:44.142Z,99.40
2018-12-23T20:00:54.884Z,99.20
2018-12-23T20:03:42.587Z,99.10
2018-12-23T20:06:56.443Z,99.30
2018-12-23T20:10:06.058Z,99.30
2018-12-23T20:13:03.190Z,99.30
2018-12-23T20:15:58.695Z,99.00
2018-12-23T20:19:15.169Z,98.60
2018-12-23T20:22:21.040Z,98.80
2018-12-23T20:25:28.071Z,98.00
2018-12-23T20:28:42.091Z,98.10
2018-12-23T20:31:49.368Z,98.10
2018-12-23T20:34:33.206Z,98.00
2018-12-23T20:37:26.857Z,98.00
2018-12-23T20:40:36.694Z,98.30
2018-12-23T20:43:43.035Z,98.10
2018-12-23T20:46:51.264Z,97.90
2018-12-23T20:50:10.567Z,97.90
2018-12-23T20:52:55.048Z,98.00
2018-12-23T20:56:05.974Z,98.10
2018-12-23T20:58:53.798Z,98.20
2018-12-23T21:02:04.056Z,98.20
2018-12-23T21:05:15.415Z,97.90
2018-12-23T21:08:14.594Z,98.00
2018-12-23T21:11:17.677Z,97.90
2018-12-23T21:14:24.040Z,98.10
2018-12-23T21:20:43.773Z,98.30
2018-12-23T21:24:05.622Z,98.00
2018-12-23T21:27:08.017Z,98.10
2018-12-23T21:30:00.234Z,97.90
2018-12-23T21:33:16.444Z,98.00
2018-12-23T21:36:40.975Z,97.80
2018-12-23T21:39:56.304Z,97.80
2018-12-23T21:42:55.133Z,97.80
2018-12-23T21:46:20.516Z,98.00
2018-12-23T21:49:34.942Z,97.90
2018-12-23T21:52:46.310Z,98.00
2018-12-23T21:55:59.096Z,98.10
2018-12-23T21:59:34.403Z,98.00
2018-12-23T22:02:41.903Z,97.90
2018-12-23T22:05:57.454Z,97.90
2018-12-23T22:09:08.707Z,97.90
2018-12-23T22:12:14.030Z,97.90
2018-12-23T22:14:45.016Z,97.80
2018-12-23T22:17:16.047Z,97.90
2018-12-23T22:19:46.957Z,98.40
2018-12-23T22:22:17.873Z,97.90
2018-12-23T22:24:48.293Z,97.50
2018-12-23T22:27:18.921Z,97.60
2018-12-23T22:29:49.946Z,97.40
2018-12-23T22:32:20.990Z,97.20
2018-12-23T22:34:51.660Z,97.40
2018-12-23T22:37:22.737Z,97.50
2018-12-23T22:39:53.838Z,97.00
2018-12-23T22:42:24.804Z,97.00
2018-12-23T22:44:55.772Z,97.00
2018-12-23T22:47:26.656Z,96.80
2018-12-23T22:49:57.527Z,96.70
2018-12-23T22:52:28.420Z,96.70
2018-12-23T22:54:59.416Z,96.60
2018-12-23T22:57:30.494Z,96.70
2018-12-23T23:00:01.196Z,96.60
2018-12-23T23:02:31.936Z,96.70
2018-12-23T23:05:02.848Z,96.70
2018-12-23T23:07:33.482Z,96.70
2018-12-23T23:10:04.583Z,97.00
2018-12-23T23:12:35.456Z,97.00
2018-12-23T23:15:06.307Z,97.10
2018-12-23T23:17:37.372Z,97.10
2018-12-23T23:20:07.955Z,97.20
2018-12-23T23:22:38.341Z,97.20
2018-12-23T23:25:08.948Z,97.30
2018-12-23T23:27:39.999Z,97.10
2018-12-23T23:30:10.954Z,97.10
2018-12-23T23:32:41.578Z,96.70
2018-12-23T23:35:12.524Z,96.80
2018-12-23T23:37:43.569Z,97.00
2018-12-23T23:40:14.579Z,97.00
2018-12-23T23:42:45.722Z,97.20
2018-12-23T23:45:16.659Z,97.20
2018-12-23T23:47:47.351Z,97.00
2018-12-23T23:50:18.283Z,97.10
2018-12-23T23:52:48.868Z,97.10
2018-12-23T23:55:19.536Z,97.10
2018-12-23T23:57:50.189Z,97.00
